Terminal Aerodrome Forecast
Issued by NWS

Home | Current Version | Previous Version | Text Only | Print | Product List | Glossary On
Versions: 1 2 3 4 5 6 7 8 9 10 11 12 13 14 15 16
000
FTUS43 KBIS 200739 AAA
TAFMOT
TAF AMD
KMOT 200739Z 2008/2106 VRB03KT 3SM -SN OVC025
     FM201100 28004KT P6SM OVC030
     FM201800 26009KT P6SM BKN090
     FM210100 26008KT P6SM SCT140=

USA.gov is the U.S. government's official web portal to all federal, state and local government web resources and services.